sensor_id;sensor_type;location;lat;lon;timestamp;P1;durP1;ratioP1;P2;durP2;ratioP2
30420;SDS011;17218;54.070;10.012;2023-07-08T00:01:43;5.55;;;4.90;;
30420;SDS011;17218;54.070;10.012;2023-07-08T00:04:10;4.80;;;4.38;;
30420;SDS011;17218;54.070;10.012;2023-07-08T00:06:36;5.45;;;4.45;;
30420;SDS011;17218;54.070;10.012;2023-07-08T00:09:07;7.47;;;5.68;;
30420;SDS011;17218;54.070;10.012;2023-07-08T00:11:36;6.25;;;5.30;;
30420;SDS011;17218;54.070;10.012;2023-07-08T00:14:02;7.03;;;5.25;;
30420;SDS011;17218;54.070;10.012;2023-07-08T00:16:29;6.90;;;4.80;;
30420;SDS011;17218;54.070;10.012;2023-07-08T00:18:55;7.20;;;5.47;;
30420;SDS011;17218;54.070;10.012;2023-07-08T00:21:22;6.30;;;4.93;;
30420;SDS011;17218;54.070;10.012;2023-07-08T00:23:49;5.38;;;4.82;;
30420;SDS011;17218;54.070;10.012;2023-07-08T00:26:21;5.25;;;4.75;;
30420;SDS011;17218;54.070;10.012;2023-07-08T00:28:49;5.43;;;4.35;;
30420;SDS011;17218;54.070;10.012;2023-07-08T00:31:15;5.57;;;4.95;;
30420;SDS011;17218;54.070;10.012;2023-07-08T00:33:42;6.50;;;5.05;;
30420;SDS011;17218;54.070;10.012;2023-07-08T00:36:09;5.10;;;4.28;;
30420;SDS011;17218;54.070;10.012;2023-07-08T00:38:37;4.93;;;4.40;;
30420;SDS011;17218;54.070;10.012;2023-07-08T00:41:11;5.65;;;4.32;;
30420;SDS011;17218;54.070;10.012;2023-07-08T00:43:41;5.35;;;4.40;;
30420;SDS011;17218;54.070;10.012;2023-07-08T00:46:13;5.55;;;4.35;;
30420;SDS011;17218;54.070;10.012;2023-07-08T00:48:48;5.40;;;4.90;;
30420;SDS011;17218;54.070;10.012;2023-07-08T00:51:18;4.85;;;4.45;;
30420;SDS011;17218;54.070;10.012;2023-07-08T00:53:47;4.95;;;4.55;;
30420;SDS011;17218;54.070;10.012;2023-07-08T00:56:15;5.70;;;4.28;;
30420;SDS011;17218;54.070;10.012;2023-07-08T00:58:47;5.13;;;4.63;;
30420;SDS011;17218;54.070;10.012;2023-07-08T01:01:16;6.15;;;5.55;;
30420;SDS011;17218;54.070;10.012;2023-07-08T01:03:45;6.22;;;5.15;;
30420;SDS011;17218;54.070;10.012;2023-07-08T01:06:16;8.45;;;5.70;;
30420;SDS011;17218;54.070;10.012;2023-07-08T01:08:42;5.50;;;5.03;;
30420;SDS011;17218;54.070;10.012;2023-07-08T01:11:09;5.85;;;5.25;;
30420;SDS011;17218;54.070;10.012;2023-07-08T01:13:37;5.80;;;5.30;;
30420;SDS011;17218;54.070;10.012;2023-07-08T01:16:10;5.43;;;5.00;;
30420;SDS011;17218;54.070;10.012;2023-07-08T01:18:37;7.55;;;5.55;;
30420;SDS011;17218;54.070;10.012;2023-07-08T01:21:05;6.13;;;5.43;;
30420;SDS011;17218;54.070;10.012;2023-07-08T01:23:53;8.02;;;5.70;;
30420;SDS011;17218;54.070;10.012;2023-07-08T01:26:20;6.03;;;5.43;;
30420;SDS011;17218;54.070;10.012;2023-07-08T01:28:50;5.55;;;5.05;;
30420;SDS011;17218;54.070;10.012;2023-07-08T01:31:17;5.78;;;5.28;;
30420;SDS011;17218;54.070;10.012;2023-07-08T01:33:44;5.82;;;5.32;;
30420;SDS011;17218;54.070;10.012;2023-07-08T01:36:11;6.78;;;5.53;;
30420;SDS011;17218;54.070;10.012;2023-07-08T01:38:38;5.65;;;5.25;;
30420;SDS011;17218;54.070;10.012;2023-07-08T01:41:10;5.45;;;4.97;;
30420;SDS011;17218;54.070;10.012;2023-07-08T01:43:37;8.15;;;5.93;;
30420;SDS011;17218;54.070;10.012;2023-07-08T01:46:04;6.07;;;4.72;;
30420;SDS011;17218;54.070;10.012;2023-07-08T01:48:38;4.95;;;4.45;;
30420;SDS011;17218;54.070;10.012;2023-07-08T01:51:07;4.95;;;4.55;;
30420;SDS011;17218;54.070;10.012;2023-07-08T01:53:35;9.68;;;5.35;;
30420;SDS011;17218;54.070;10.012;2023-07-08T01:56:03;7.25;;;5.72;;
30420;SDS011;17218;54.070;10.012;2023-07-08T01:58:31;6.43;;;5.82;;
30420;SDS011;17218;54.070;10.012;2023-07-08T02:00:58;5.75;;;5.25;;
30420;SDS011;17218;54.070;10.012;2023-07-08T02:03:25;5.75;;;5.15;;
30420;SDS011;17218;54.070;10.012;2023-07-08T02:05:51;5.75;;;5.25;;
30420;SDS011;17218;54.070;10.012;2023-07-08T02:08:18;6.78;;;6.13;;
30420;SDS011;17218;54.070;10.012;2023-07-08T02:10:48;7.45;;;6.07;;
30420;SDS011;17218;54.070;10.012;2023-07-08T02:13:16;6.38;;;5.78;;
30420;SDS011;17218;54.070;10.012;2023-07-08T02:15:44;8.13;;;6.97;;
30420;SDS011;17218;54.070;10.012;2023-07-08T02:18:11;6.40;;;5.80;;
30420;SDS011;17218;54.070;10.012;2023-07-08T02:20:37;6.60;;;5.45;;
30420;SDS011;17218;54.070;10.012;2023-07-08T02:23:04;8.20;;;6.13;;
30420;SDS011;17218;54.070;10.012;2023-07-08T02:25:30;7.05;;;5.75;;
30420;SDS011;17218;54.070;10.012;2023-07-08T02:27:56;7.18;;;6.47;;
30420;SDS011;17218;54.070;10.012;2023-07-08T02:30:23;8.07;;;6.57;;
30420;SDS011;17218;54.070;10.012;2023-07-08T02:32:51;7.65;;;6.50;;
30420;SDS011;17218;54.070;10.012;2023-07-08T02:35:22;6.88;;;6.18;;
30420;SDS011;17218;54.070;10.012;2023-07-08T02:37:50;6.65;;;6.00;;
30420;SDS011;17218;54.070;10.012;2023-07-08T02:40:16;6.68;;;6.07;;
30420;SDS011;17218;54.070;10.012;2023-07-08T02:42:43;8.52;;;6.70;;
30420;SDS011;17218;54.070;10.012;2023-07-08T02:45:10;6.97;;;6.00;;
30420;SDS011;17218;54.070;10.012;2023-07-08T02:47:37;6.75;;;6.22;;
30420;SDS011;17218;54.070;10.012;2023-07-08T02:50:06;7.53;;;6.60;;
30420;SDS011;17218;54.070;10.012;2023-07-08T02:52:34;7.57;;;6.47;;
30420;SDS011;17218;54.070;10.012;2023-07-08T02:55:00;7.00;;;6.22;;
30420;SDS011;17218;54.070;10.012;2023-07-08T02:57:27;7.38;;;6.68;;
30420;SDS011;17218;54.070;10.012;2023-07-08T02:59:53;11.35;;;7.00;;
30420;SDS011;17218;54.070;10.012;2023-07-08T03:02:21;8.43;;;7.40;;
30420;SDS011;17218;54.070;10.012;2023-07-08T03:04:48;9.05;;;6.60;;
30420;SDS011;17218;54.070;10.012;2023-07-08T03:07:16;8.63;;;7.82;;
30420;SDS011;17218;54.070;10.012;2023-07-08T03:09:43;8.90;;;8.10;;
30420;SDS011;17218;54.070;10.012;2023-07-08T03:12:10;9.18;;;8.38;;
30420;SDS011;17218;54.070;10.012;2023-07-08T03:14:37;9.75;;;8.48;;
30420;SDS011;17218;54.070;10.012;2023-07-08T03:17:04;10.38;;;9.38;;
30420;SDS011;17218;54.070;10.012;2023-07-08T03:19:31;10.25;;;9.23;;
30420;SDS011;17218;54.070;10.012;2023-07-08T03:21:57;9.82;;;8.68;;
30420;SDS011;17218;54.070;10.012;2023-07-08T03:24:25;9.07;;;8.25;;
30420;SDS011;17218;54.070;10.012;2023-07-08T03:26:54;9.15;;;7.70;;
30420;SDS011;17218;54.070;10.012;2023-07-08T03:29:24;9.27;;;8.38;;
30420;SDS011;17218;54.070;10.012;2023-07-08T03:31:50;9.07;;;8.20;;
30420;SDS011;17218;54.070;10.012;2023-07-08T03:34:17;9.30;;;8.40;;
30420;SDS011;17218;54.070;10.012;2023-07-08T03:36:44;10.05;;;7.85;;
30420;SDS011;17218;54.070;10.012;2023-07-08T03:39:15;9.18;;;8.30;;
30420;SDS011;17218;54.070;10.012;2023-07-08T03:41:43;10.07;;;8.20;;
30420;SDS011;17218;54.070;10.012;2023-07-08T03:44:10;9.77;;;8.70;;
30420;SDS011;17218;54.070;10.012;2023-07-08T03:46:38;11.38;;;8.77;;
30420;SDS011;17218;54.070;10.012;2023-07-08T03:49:05;9.07;;;8.23;;
30420;SDS011;17218;54.070;10.012;2023-07-08T03:51:32;10.20;;;8.60;;
30420;SDS011;17218;54.070;10.012;2023-07-08T03:54:00;8.50;;;7.70;;
30420;SDS011;17218;54.070;10.012;2023-07-08T03:56:27;9.43;;;8.30;;
30420;SDS011;17218;54.070;10.012;2023-07-08T03:58:55;10.25;;;9.20;;
30420;SDS011;17218;54.070;10.012;2023-07-08T04:01:22;9.82;;;8.05;;
30420;SDS011;17218;54.070;10.012;2023-07-08T04:03:50;9.38;;;8.07;;
30420;SDS011;17218;54.070;10.012;2023-07-08T04:06:18;9.48;;;8.48;;
30420;SDS011;17218;54.070;10.012;2023-07-08T04:08:44;11.02;;;9.88;;
30420;SDS011;17218;54.070;10.012;2023-07-08T04:11:11;11.70;;;9.77;;
30420;SDS011;17218;54.070;10.012;2023-07-08T04:13:39;11.88;;;10.20;;
30420;SDS011;17218;54.070;10.012;2023-07-08T04:16:07;12.32;;;10.20;;
30420;SDS011;17218;54.070;10.012;2023-07-08T04:18:41;11.25;;;10.18;;
30420;SDS011;17218;54.070;10.012;2023-07-08T04:21:07;11.25;;;10.15;;
30420;SDS011;17218;54.070;10.012;2023-07-08T04:23:34;11.68;;;9.82;;
30420;SDS011;17218;54.070;10.012;2023-07-08T04:26:00;10.68;;;9.68;;
30420;SDS011;17218;54.070;10.012;2023-07-08T04:28:27;11.38;;;10.23;;
30420;SDS011;17218;54.070;10.012;2023-07-08T04:30:54;12.63;;;11.30;;
30420;SDS011;17218;54.070;10.012;2023-07-08T04:33:22;11.55;;;10.27;;
30420;SDS011;17218;54.070;10.012;2023-07-08T04:35:48;11.00;;;9.73;;
30420;SDS011;17218;54.070;10.012;2023-07-08T04:38:17;15.18;;;9.95;;
30420;SDS011;17218;54.070;10.012;2023-07-08T04:40:46;11.05;;;9.85;;
30420;SDS011;17218;54.070;10.012;2023-07-08T04:43:14;11.05;;;9.18;;
30420;SDS011;17218;54.070;10.012;2023-07-08T04:45:41;11.32;;;9.18;;
30420;SDS011;17218;54.070;10.012;2023-07-08T04:48:11;9.55;;;8.55;;
30420;SDS011;17218;54.070;10.012;2023-07-08T04:50:40;11.52;;;9.93;;
30420;SDS011;17218;54.070;10.012;2023-07-08T04:53:08;14.38;;;10.32;;
30420;SDS011;17218;54.070;10.012;2023-07-08T04:55:35;12.57;;;10.05;;
30420;SDS011;17218;54.070;10.012;2023-07-08T04:58:02;12.07;;;9.93;;
30420;SDS011;17218;54.070;10.012;2023-07-08T05:00:29;10.73;;;9.68;;
30420;SDS011;17218;54.070;10.012;2023-07-08T05:02:55;12.32;;;10.00;;
30420;SDS011;17218;54.070;10.012;2023-07-08T05:05:22;13.15;;;10.07;;
30420;SDS011;17218;54.070;10.012;2023-07-08T05:07:50;10.73;;;9.13;;
30420;SDS011;17218;54.070;10.012;2023-07-08T05:10:16;12.05;;;9.10;;
30420;SDS011;17218;54.070;10.012;2023-07-08T05:12:44;13.07;;;9.18;;
30420;SDS011;17218;54.070;10.012;2023-07-08T05:15:12;12.65;;;9.07;;
30420;SDS011;17218;54.070;10.012;2023-07-08T05:17:39;11.30;;;8.73;;
30420;SDS011;17218;54.070;10.012;2023-07-08T05:20:07;12.25;;;9.60;;
30420;SDS011;17218;54.070;10.012;2023-07-08T05:22:36;10.25;;;9.07;;
30420;SDS011;17218;54.070;10.012;2023-07-08T05:25:04;9.85;;;8.85;;
30420;SDS011;17218;54.070;10.012;2023-07-08T05:27:32;12.05;;;9.13;;
30420;SDS011;17218;54.070;10.012;2023-07-08T05:29:59;9.50;;;8.50;;
30420;SDS011;17218;54.070;10.012;2023-07-08T05:32:26;8.55;;;7.72;;
30420;SDS011;17218;54.070;10.012;2023-07-08T05:34:53;9.75;;;8.20;;
30420;SDS011;17218;54.070;10.012;2023-07-08T05:37:19;8.30;;;7.57;;
30420;SDS011;17218;54.070;10.012;2023-07-08T05:39:50;8.40;;;7.38;;
30420;SDS011;17218;54.070;10.012;2023-07-08T05:42:18;9.68;;;8.73;;
30420;SDS011;17218;54.070;10.012;2023-07-08T05:44:45;8.40;;;7.60;;
30420;SDS011;17218;54.070;10.012;2023-07-08T05:47:12;7.88;;;7.18;;
30420;SDS011;17218;54.070;10.012;2023-07-08T05:49:38;8.02;;;7.20;;
30420;SDS011;17218;54.070;10.012;2023-07-08T05:52:05;7.18;;;6.45;;
30420;SDS011;17218;54.070;10.012;2023-07-08T05:54:35;8.63;;;7.35;;
30420;SDS011;17218;54.070;10.012;2023-07-08T05:57:02;6.88;;;6.28;;
30420;SDS011;17218;54.070;10.012;2023-07-08T05:59:31;8.48;;;6.85;;
30420;SDS011;17218;54.070;10.012;2023-07-08T06:01:57;6.60;;;5.90;;
30420;SDS011;17218;54.070;10.012;2023-07-08T06:04:24;9.60;;;6.15;;
30420;SDS011;17218;54.070;10.012;2023-07-08T06:06:51;7.28;;;5.72;;
30420;SDS011;17218;54.070;10.012;2023-07-08T06:09:17;5.18;;;4.78;;
30420;SDS011;17218;54.070;10.012;2023-07-08T06:11:44;5.25;;;4.75;;
30420;SDS011;17218;54.070;10.012;2023-07-08T06:14:10;7.38;;;5.18;;
30420;SDS011;17218;54.070;10.012;2023-07-08T06:16:38;5.32;;;4.78;;
30420;SDS011;17218;54.070;10.012;2023-07-08T06:19:05;5.78;;;4.28;;
30420;SDS011;17218;54.070;10.012;2023-07-08T06:21:31;7.60;;;4.50;;
30420;SDS011;17218;54.070;10.012;2023-07-08T06:23:58;4.18;;;3.50;;
30420;SDS011;17218;54.070;10.012;2023-07-08T06:26:24;4.50;;;4.10;;
30420;SDS011;17218;54.070;10.012;2023-07-08T06:28:51;5.82;;;3.50;;
30420;SDS011;17218;54.070;10.012;2023-07-08T06:31:17;5.68;;;3.90;;
30420;SDS011;17218;54.070;10.012;2023-07-08T06:33:45;6.70;;;3.20;;
30420;SDS011;17218;54.070;10.012;2023-07-08T06:36:11;7.63;;;3.45;;
30420;SDS011;17218;54.070;10.012;2023-07-08T06:38:38;6.82;;;3.65;;
30420;SDS011;17218;54.070;10.012;2023-07-08T06:41:04;4.90;;;3.50;;
30420;SDS011;17218;54.070;10.012;2023-07-08T06:43:31;3.65;;;2.97;;
30420;SDS011;17218;54.070;10.012;2023-07-08T06:45:57;4.82;;;2.90;;
30420;SDS011;17218;54.070;10.012;2023-07-08T06:48:24;5.55;;;3.00;;
30420;SDS011;17218;54.070;10.012;2023-07-08T06:50:52;4.10;;;2.63;;
30420;SDS011;17218;54.070;10.012;2023-07-08T06:53:18;5.43;;;2.95;;
30420;SDS011;17218;54.070;10.012;2023-07-08T06:55:45;7.05;;;3.35;;
30420;SDS011;17218;54.070;10.012;2023-07-08T06:58:11;5.65;;;2.75;;
30420;SDS011;17218;54.070;10.012;2023-07-08T07:00:40;3.42;;;2.95;;
30420;SDS011;17218;54.070;10.012;2023-07-08T07:03:07;3.88;;;2.72;;
30420;SDS011;17218;54.070;10.012;2023-07-08T07:05:34;5.00;;;2.83;;
30420;SDS011;17218;54.070;10.012;2023-07-08T07:08:02;5.45;;;3.00;;
30420;SDS011;17218;54.070;10.012;2023-07-08T07:10:32;3.50;;;3.00;;
30420;SDS011;17218;54.070;10.012;2023-07-08T07:12:58;4.85;;;3.08;;
30420;SDS011;17218;54.070;10.012;2023-07-08T07:15:25;4.28;;;2.92;;
30420;SDS011;17218;54.070;10.012;2023-07-08T07:17:52;5.22;;;2.60;;
30420;SDS011;17218;54.070;10.012;2023-07-08T07:20:19;3.85;;;2.88;;
30420;SDS011;17218;54.070;10.012;2023-07-08T07:22:45;4.47;;;2.80;;
30420;SDS011;17218;54.070;10.012;2023-07-08T07:25:13;5.60;;;3.28;;
30420;SDS011;17218;54.070;10.012;2023-07-08T07:27:39;6.78;;;3.05;;
30420;SDS011;17218;54.070;10.012;2023-07-08T07:30:06;4.72;;;3.10;;
30420;SDS011;17218;54.070;10.012;2023-07-08T07:32:37;3.92;;;2.90;;
30420;SDS011;17218;54.070;10.012;2023-07-08T07:35:04;3.88;;;2.75;;
30420;SDS011;17218;54.070;10.012;2023-07-08T07:37:32;4.40;;;3.20;;
30420;SDS011;17218;54.070;10.012;2023-07-08T07:39:58;5.53;;;2.88;;
30420;SDS011;17218;54.070;10.012;2023-07-08T07:42:26;2.83;;;2.53;;
30420;SDS011;17218;54.070;10.012;2023-07-08T07:44:53;4.80;;;2.90;;
30420;SDS011;17218;54.070;10.012;2023-07-08T07:47:20;5.63;;;2.72;;
30420;SDS011;17218;54.070;10.012;2023-07-08T07:49:46;2.78;;;2.42;;
30420;SDS011;17218;54.070;10.012;2023-07-08T07:52:12;4.35;;;2.83;;
30420;SDS011;17218;54.070;10.012;2023-07-08T07:54:41;3.47;;;2.60;;
30420;SDS011;17218;54.070;10.012;2023-07-08T07:57:07;6.75;;;2.60;;
30420;SDS011;17218;54.070;10.012;2023-07-08T07:59:35;4.07;;;2.70;;
30420;SDS011;17218;54.070;10.012;2023-07-08T08:02:03;4.53;;;2.83;;
30420;SDS011;17218;54.070;10.012;2023-07-08T08:04:30;4.35;;;2.72;;
30420;SDS011;17218;54.070;10.012;2023-07-08T08:06:56;3.67;;;2.58;;
30420;SDS011;17218;54.070;10.012;2023-07-08T08:09:22;4.78;;;2.83;;
30420;SDS011;17218;54.070;10.012;2023-07-08T08:11:49;4.80;;;2.70;;
30420;SDS011;17218;54.070;10.012;2023-07-08T08:14:16;4.05;;;2.42;;
30420;SDS011;17218;54.070;10.012;2023-07-08T08:16:44;5.53;;;2.95;;
30420;SDS011;17218;54.070;10.012;2023-07-08T08:19:11;5.53;;;2.80;;
30420;SDS011;17218;54.070;10.012;2023-07-08T08:21:37;6.20;;;3.03;;
30420;SDS011;17218;54.070;10.012;2023-07-08T08:24:04;4.47;;;2.97;;
30420;SDS011;17218;54.070;10.012;2023-07-08T08:26:31;3.30;;;3.00;;
30420;SDS011;17218;54.070;10.012;2023-07-08T08:28:57;3.70;;;2.75;;
30420;SDS011;17218;54.070;10.012;2023-07-08T08:31:23;12.18;;;3.65;;
30420;SDS011;17218;54.070;10.012;2023-07-08T08:33:52;4.25;;;2.72;;
30420;SDS011;17218;54.070;10.012;2023-07-08T08:36:18;4.65;;;3.08;;
30420;SDS011;17218;54.070;10.012;2023-07-08T08:38:45;5.85;;;3.15;;
30420;SDS011;17218;54.070;10.012;2023-07-08T08:41:12;6.05;;;3.03;;
30420;SDS011;17218;54.070;10.012;2023-07-08T08:43:41;5.55;;;3.10;;
30420;SDS011;17218;54.070;10.012;2023-07-08T08:46:12;4.78;;;2.60;;
30420;SDS011;17218;54.070;10.012;2023-07-08T08:48:49;3.08;;;2.50;;
30420;SDS011;17218;54.070;10.012;2023-07-08T08:51:21;3.85;;;2.55;;
30420;SDS011;17218;54.070;10.012;2023-07-08T08:53:50;3.83;;;2.55;;
30420;SDS011;17218;54.070;10.012;2023-07-08T08:56:22;4.25;;;2.72;;
30420;SDS011;17218;54.070;10.012;2023-07-08T08:58:53;4.07;;;2.70;;
30420;SDS011;17218;54.070;10.012;2023-07-08T09:01:27;3.65;;;2.47;;
30420;SDS011;17218;54.070;10.012;2023-07-08T09:03:56;4.18;;;2.55;;
30420;SDS011;17218;54.070;10.012;2023-07-08T09:06:25;3.80;;;2.80;;
30420;SDS011;17218;54.070;10.012;2023-07-08T09:08:54;4.10;;;2.42;;
30420;SDS011;17218;54.070;10.012;2023-07-08T09:11:38;2.92;;;2.63;;
30420;SDS011;17218;54.070;10.012;2023-07-08T09:14:12;4.13;;;2.70;;
30420;SDS011;17218;54.070;10.012;2023-07-08T09:16:47;2.70;;;2.50;;
30420;SDS011;17218;54.070;10.012;2023-07-08T09:19:22;4.47;;;2.50;;
30420;SDS011;17218;54.070;10.012;2023-07-08T09:21:51;2.85;;;2.50;;
30420;SDS011;17218;54.070;10.012;2023-07-08T09:24:25;4.05;;;2.70;;
30420;SDS011;17218;54.070;10.012;2023-07-08T09:26:56;4.30;;;2.38;;
30420;SDS011;17218;54.070;10.012;2023-07-08T09:29:26;5.15;;;2.63;;
30420;SDS011;17218;54.070;10.012;2023-07-08T09:31:52;7.10;;;2.85;;
30420;SDS011;17218;54.070;10.012;2023-07-08T09:34:22;4.07;;;2.67;;
30420;SDS011;17218;54.070;10.012;2023-07-08T09:36:50;3.95;;;2.42;;
30420;SDS011;17218;54.070;10.012;2023-07-08T09:39:18;3.55;;;2.70;;
30420;SDS011;17218;54.070;10.012;2023-07-08T09:41:47;3.45;;;2.45;;
30420;SDS011;17218;54.070;10.012;2023-07-08T09:44:21;4.47;;;2.92;;
30420;SDS011;17218;54.070;10.012;2023-07-08T09:46:51;4.22;;;2.33;;
30420;SDS011;17218;54.070;10.012;2023-07-08T09:49:19;3.97;;;2.53;;
30420;SDS011;17218;54.070;10.012;2023-07-08T09:51:49;2.97;;;2.63;;
30420;SDS011;17218;54.070;10.012;2023-07-08T09:54:17;2.70;;;2.30;;
30420;SDS011;17218;54.070;10.012;2023-07-08T09:56:45;4.30;;;2.90;;
30420;SDS011;17218;54.070;10.012;2023-07-08T09:59:21;3.63;;;2.58;;
30420;SDS011;17218;54.070;10.012;2023-07-08T10:01:52;2.85;;;2.60;;
30420;SDS011;17218;54.070;10.012;2023-07-08T10:04:21;3.25;;;2.50;;
30420;SDS011;17218;54.070;10.012;2023-07-08T10:06:48;4.30;;;2.80;;
30420;SDS011;17218;54.070;10.012;2023-07-08T10:09:19;2.80;;;2.47;;
30420;SDS011;17218;54.070;10.012;2023-07-08T10:11:51;2.63;;;2.30;;
30420;SDS011;17218;54.070;10.012;2023-07-08T10:14:24;4.10;;;2.70;;
30420;SDS011;17218;54.070;10.012;2023-07-08T10:16:54;3.97;;;2.25;;
30420;SDS011;17218;54.070;10.012;2023-07-08T10:19:22;4.22;;;2.45;;
30420;SDS011;17218;54.070;10.012;2023-07-08T10:21:51;3.80;;;2.40;;
30420;SDS011;17218;54.070;10.012;2023-07-08T10:24:31;2.53;;;2.33;;
30420;SDS011;17218;54.070;10.012;2023-07-08T10:27:08;3.05;;;2.47;;
30420;SDS011;17218;54.070;10.012;2023-07-08T10:29:45;2.80;;;2.38;;
30420;SDS011;17218;54.070;10.012;2023-07-08T10:32:22;3.47;;;2.72;;
30420;SDS011;17218;54.070;10.012;2023-07-08T10:35:01;5.55;;;2.10;;
30420;SDS011;17218;54.070;10.012;2023-07-08T10:37:37;2.42;;;2.22;;
30420;SDS011;17218;54.070;10.012;2023-07-08T10:40:28;3.92;;;2.30;;
30420;SDS011;17218;54.070;10.012;2023-07-08T10:43:04;2.60;;;2.40;;
30420;SDS011;17218;54.070;10.012;2023-07-08T10:45:45;4.00;;;2.50;;
30420;SDS011;17218;54.070;10.012;2023-07-08T10:48:20;4.07;;;2.30;;
30420;SDS011;17218;54.070;10.012;2023-07-08T10:51:08;4.05;;;2.60;;
30420;SDS011;17218;54.070;10.012;2023-07-08T10:53:44;2.58;;;2.25;;
30420;SDS011;17218;54.070;10.012;2023-07-08T10:56:21;2.67;;;2.17;;
30420;SDS011;17218;54.070;10.012;2023-07-08T10:59:05;2.40;;;2.20;;
30420;SDS011;17218;54.070;10.012;2023-07-08T11:01:48;4.82;;;2.20;;
30420;SDS011;17218;54.070;10.012;2023-07-08T11:07:25;2.97;;;2.30;;
30420;SDS011;17218;54.070;10.012;2023-07-08T11:10:00;5.25;;;2.35;;
30420;SDS011;17218;54.070;10.012;2023-07-08T11:12:32;4.95;;;2.22;;
30420;SDS011;17218;54.070;10.012;2023-07-08T11:15:04;4.32;;;2.60;;
30420;SDS011;17218;54.070;10.012;2023-07-08T11:17:40;3.92;;;2.75;;
30420;SDS011;17218;54.070;10.012;2023-07-08T11:20:13;4.10;;;2.47;;
30420;SDS011;17218;54.070;10.012;2023-07-08T11:22:47;3.83;;;2.50;;
30420;SDS011;17218;54.070;10.012;2023-07-08T11:25:18;4.60;;;2.50;;
30420;SDS011;17218;54.070;10.012;2023-07-08T11:27:46;3.83;;;2.45;;
30420;SDS011;17218;54.070;10.012;2023-07-08T11:30:20;2.40;;;2.15;;
30420;SDS011;17218;54.070;10.012;2023-07-08T11:32:52;4.07;;;2.38;;
30420;SDS011;17218;54.070;10.012;2023-07-08T11:35:27;4.55;;;2.67;;
30420;SDS011;17218;54.070;10.012;2023-07-08T11:38:01;3.05;;;2.35;;
30420;SDS011;17218;54.070;10.012;2023-07-08T11:40:29;4.05;;;2.22;;
30420;SDS011;17218;54.070;10.012;2023-07-08T11:42:59;5.28;;;2.42;;
30420;SDS011;17218;54.070;10.012;2023-07-08T11:45:30;4.07;;;2.30;;
30420;SDS011;17218;54.070;10.012;2023-07-08T11:48:03;4.20;;;2.22;;
30420;SDS011;17218;54.070;10.012;2023-07-08T11:50:32;3.10;;;2.40;;
30420;SDS011;17218;54.070;10.012;2023-07-08T11:53:06;3.47;;;2.42;;
30420;SDS011;17218;54.070;10.012;2023-07-08T11:55:35;2.30;;;1.83;;
30420;SDS011;17218;54.070;10.012;2023-07-08T11:58:06;2.35;;;1.95;;
30420;SDS011;17218;54.070;10.012;2023-07-08T12:00:33;3.78;;;1.77;;
30420;SDS011;17218;54.070;10.012;2023-07-08T12:03:16;3.50;;;2.28;;
30420;SDS011;17218;54.070;10.012;2023-07-08T12:05:45;3.08;;;2.20;;
30420;SDS011;17218;54.070;10.012;2023-07-08T12:08:14;3.05;;;2.00;;
30420;SDS011;17218;54.070;10.012;2023-07-08T12:10:46;2.78;;;1.90;;
30420;SDS011;17218;54.070;10.012;2023-07-08T12:13:14;3.70;;;1.95;;
30420;SDS011;17218;54.070;10.012;2023-07-08T12:15:43;5.25;;;2.00;;
30420;SDS011;17218;54.070;10.012;2023-07-08T12:18:11;2.53;;;2.15;;
30420;SDS011;17218;54.070;10.012;2023-07-08T12:20:41;2.70;;;2.50;;
30420;SDS011;17218;54.070;10.012;2023-07-08T12:23:11;4.40;;;2.20;;
30420;SDS011;17218;54.070;10.012;2023-07-08T12:25:41;3.25;;;2.20;;
30420;SDS011;17218;54.070;10.012;2023-07-08T12:28:08;2.55;;;1.80;;
30420;SDS011;17218;54.070;10.012;2023-07-08T12:30:37;3.15;;;2.25;;
30420;SDS011;17218;54.070;10.012;2023-07-08T12:33:04;3.03;;;1.92;;
30420;SDS011;17218;54.070;10.012;2023-07-08T12:35:37;3.00;;;2.22;;
30420;SDS011;17218;54.070;10.012;2023-07-08T12:38:05;3.47;;;1.92;;
30420;SDS011;17218;54.070;10.012;2023-07-08T12:40:44;2.90;;;2.00;;
30420;SDS011;17218;54.070;10.012;2023-07-08T12:43:10;2.40;;;2.20;;
30420;SDS011;17218;54.070;10.012;2023-07-08T12:45:38;2.47;;;2.10;;
30420;SDS011;17218;54.070;10.012;2023-07-08T12:48:04;2.63;;;2.20;;
30420;SDS011;17218;54.070;10.012;2023-07-08T12:50:31;4.13;;;2.42;;
30420;SDS011;17218;54.070;10.012;2023-07-08T12:52:58;4.72;;;2.30;;
30420;SDS011;17218;54.070;10.012;2023-07-08T12:55:28;2.05;;;1.90;;
30420;SDS011;17218;54.070;10.012;2023-07-08T12:57:56;2.47;;;1.77;;
30420;SDS011;17218;54.070;10.012;2023-07-08T13:00:23;2.13;;;1.88;;
30420;SDS011;17218;54.070;10.012;2023-07-08T13:02:55;2.13;;;1.92;;
30420;SDS011;17218;54.070;10.012;2023-07-08T13:05:24;2.25;;;2.05;;
30420;SDS011;17218;54.070;10.012;2023-07-08T13:07:56;2.33;;;2.08;;
30420;SDS011;17218;54.070;10.012;2023-07-08T13:10:24;3.72;;;2.33;;
30420;SDS011;17218;54.070;10.012;2023-07-08T13:12:55;5.60;;;2.10;;
30420;SDS011;17218;54.070;10.012;2023-07-08T13:15:28;3.15;;;2.10;;
30420;SDS011;17218;54.070;10.012;2023-07-08T13:17:59;3.05;;;1.90;;
30420;SDS011;17218;54.070;10.012;2023-07-08T13:20:26;2.45;;;2.13;;
30420;SDS011;17218;54.070;10.012;2023-07-08T13:22:54;3.25;;;1.70;;
30420;SDS011;17218;54.070;10.012;2023-07-08T13:25:25;5.10;;;2.40;;
30420;SDS011;17218;54.070;10.012;2023-07-08T13:27:54;2.50;;;2.10;;
30420;SDS011;17218;54.070;10.012;2023-07-08T13:30:25;2.30;;;2.10;;
30420;SDS011;17218;54.070;10.012;2023-07-08T13:32:52;2.50;;;2.10;;
30420;SDS011;17218;54.070;10.012;2023-07-08T13:35:23;4.00;;;2.05;;
30420;SDS011;17218;54.070;10.012;2023-07-08T13:37:51;4.55;;;2.42;;
30420;SDS011;17218;54.070;10.012;2023-07-08T13:40:18;4.13;;;2.22;;
30420;SDS011;17218;54.070;10.012;2023-07-08T13:42:49;3.33;;;2.42;;
30420;SDS011;17218;54.070;10.012;2023-07-08T13:45:24;2.20;;;2.00;;
30420;SDS011;17218;54.070;10.012;2023-07-08T13:47:58;3.08;;;1.88;;
30420;SDS011;17218;54.070;10.012;2023-07-08T13:50:27;2.55;;;2.28;;
30420;SDS011;17218;54.070;10.012;2023-07-08T13:52:57;2.30;;;2.10;;
30420;SDS011;17218;54.070;10.012;2023-07-08T13:55:24;2.92;;;2.42;;
30420;SDS011;17218;54.070;10.012;2023-07-08T13:57:55;3.50;;;2.30;;
30420;SDS011;17218;54.070;10.012;2023-07-08T14:00:23;2.13;;;2.00;;
30420;SDS011;17218;54.070;10.012;2023-07-08T14:02:51;2.42;;;2.05;;
30420;SDS011;17218;54.070;10.012;2023-07-08T14:05:18;2.83;;;2.22;;
30420;SDS011;17218;54.070;10.012;2023-07-08T14:07:46;3.47;;;2.15;;
30420;SDS011;17218;54.070;10.012;2023-07-08T14:10:14;2.63;;;2.30;;
30420;SDS011;17218;54.070;10.012;2023-07-08T14:12:41;2.67;;;2.30;;
30420;SDS011;17218;54.070;10.012;2023-07-08T14:15:07;5.32;;;2.38;;
30420;SDS011;17218;54.070;10.012;2023-07-08T14:17:36;3.47;;;2.60;;
30420;SDS011;17218;54.070;10.012;2023-07-08T14:20:08;2.65;;;2.25;;
30420;SDS011;17218;54.070;10.012;2023-07-08T14:22:39;4.18;;;2.65;;
30420;SDS011;17218;54.070;10.012;2023-07-08T14:25:06;3.78;;;2.20;;
30420;SDS011;17218;54.070;10.012;2023-07-08T14:27:35;3.63;;;2.50;;
30420;SDS011;17218;54.070;10.012;2023-07-08T14:30:02;2.25;;;2.03;;
30420;SDS011;17218;54.070;10.012;2023-07-08T14:32:29;3.58;;;2.50;;
30420;SDS011;17218;54.070;10.012;2023-07-08T14:34:57;3.10;;;2.70;;
30420;SDS011;17218;54.070;10.012;2023-07-08T14:37:29;2.67;;;2.28;;
30420;SDS011;17218;54.070;10.012;2023-07-08T14:39:56;3.13;;;2.80;;
30420;SDS011;17218;54.070;10.012;2023-07-08T14:42:22;3.10;;;2.35;;
30420;SDS011;17218;54.070;10.012;2023-07-08T14:44:49;3.28;;;2.85;;
30420;SDS011;17218;54.070;10.012;2023-07-08T14:47:18;3.28;;;2.58;;